Time,TemperatureF,DewpointF,PressureIn,WindDirection,WindDirectionDegrees,WindSpeedMPH,WindSpeedGustMPH,Humidity,HourlyPrecipIn,Conditions,Clouds,dailyrainin,SoftwareType,DateUTC
2013-05-18 00:07:00,73.2,68.4,29.96,ENE,68,3.8,5.4,85,0.00,,,0.00,pywws,2013-05-17 14:07:00,
2013-05-18 00:17:00,73.0,68.6,29.95,NE,45,3.8,6.9,86,0.00,,,0.00,pywws,2013-05-17 14:17:00,
2013-05-18 00:27:00,72.9,68.4,29.95,NE,45,0.7,2.2,86,0.00,,,0.00,pywws,2013-05-17 14:27:00,
2013-05-18 00:37:00,72.9,68.8,29.95,East,90,3.1,3.8,87,0.00,,,0.00,pywws,2013-05-17 14:37:00,
2013-05-18 00:47:00,72.7,68.6,29.95,North,0,2.2,3.1,87,0.00,,,0.00,pywws,2013-05-17 14:47:00,
2013-05-18 00:57:00,72.7,68.6,29.94,NE,45,1.6,3.1,87,0.00,,,0.00,pywws,2013-05-17 14:57:00,
2013-05-18 01:07:00,72.7,68.6,29.95,North,0,1.6,3.1,87,0.00,,,0.00,pywws,2013-05-17 15:07:00,
2013-05-18 01:17:00,72.7,68.6,29.94,NE,45,0.7,1.6,87,0.00,,,0.00,pywws,2013-05-17 15:17:00,
2013-05-18 01:27:00,72.5,68.7,29.94,SW,225,0.0,0.0,88,0.00,,,0.00,pywws,2013-05-17 15:27:00,
2013-05-18 01:37:00,72.3,68.9,29.94,NW,315,0.0,0.7,89,0.00,,,0.00,pywws,2013-05-17 15:37:00,
2013-05-18 01:47:00,72.3,68.9,29.93,NE,45,0.0,0.0,89,0.00,,,0.00,pywws,2013-05-17 15:47:00,
2013-05-18 01:57:00,72.3,68.9,29.93,NE,45,0.0,0.0,89,0.00,,,0.00,pywws,2013-05-17 15:57:00,
2013-05-18 02:07:00,72.1,69.0,29.92,SE,135,0.0,0.0,90,0.00,,,0.00,pywws,2013-05-17 16:07:00,
2013-05-18 02:17:00,72.3,69.5,29.92,NE,45,0.7,1.6,91,0.00,,,0.00,pywws,2013-05-17 16:17:00,
2013-05-18 02:27:00,72.3,69.5,29.91,North,0,0.0,0.7,91,0.00,,,0.00,pywws,2013-05-17 16:27:00,
2013-05-18 02:37:00,72.5,69.4,29.91,NE,45,0.7,1.6,90,0.00,,,0.00,pywws,2013-05-17 16:37:00,
2013-05-18 02:47:00,72.3,68.9,29.91,NE,45,0.7,1.6,89,0.00,,,0.00,pywws,2013-05-17 16:47:00,
2013-05-18 02:57:00,72.1,69.0,29.91,West,270,0.0,0.7,90,0.00,,,0.00,pywws,2013-05-17 16:57:00,
2013-05-18 03:07:00,72.0,69.2,29.91,SW,225,0.0,0.7,91,0.00,,,0.00,pywws,2013-05-17 17:07:00,
2013-05-18 03:17:00,72.0,69.2,29.91,NW,315,0.0,0.7,91,0.00,,,0.00,pywws,2013-05-17 17:17:00,
2013-05-18 03:27:00,71.8,69.0,29.91,SW,225,0.0,0.7,91,0.00,,,0.00,pywws,2013-05-17 17:27:00,
2013-05-18 03:37:00,71.6,68.8,29.90,North,0,0.0,0.7,91,0.00,,,0.00,pywws,2013-05-17 17:37:00,
2013-05-18 03:47:00,71.4,69.0,29.90,West,270,0.0,0.7,92,0.00,,,0.00,pywws,2013-05-17 17:47:00,
2013-05-18 03:57:00,71.1,68.6,29.90,South,180,0.0,0.0,92,0.00,,,0.00,pywws,2013-05-17 17:57:00,
2013-05-18 04:07:00,70.7,68.6,29.90,West,270,0.0,0.7,93,0.00,,,0.00,pywws,2013-05-17 18:07:00,
2013-05-18 04:17:00,70.5,68.7,29.90,South,180,0.0,0.7,94,0.00,,,0.00,pywws,2013-05-17 18:17:00,
2013-05-18 04:27:00,70.2,68.7,29.91,SW,225,0.0,0.7,95,0.00,,,0.00,pywws,2013-05-17 18:27:00,
2013-05-18 04:37:00,70.0,68.8,29.91,SW,225,0.0,0.7,96,0.00,,,0.00,pywws,2013-05-17 18:37:00,
2013-05-18 04:47:00,70.0,68.8,29.91,West,270,0.0,0.0,96,0.00,,,0.00,pywws,2013-05-17 18:47:00,
2013-05-18 04:57:00,70.2,69.3,29.91,East,90,0.0,0.7,97,0.00,,,0.00,pywws,2013-05-17 18:57:00,
2013-05-18 05:07:00,70.3,69.1,29.91,West,270,0.0,0.7,96,0.00,,,0.00,pywws,2013-05-17 19:07:00,
2013-05-18 05:17:00,70.3,69.1,29.91,West,270,0.0,0.7,96,0.00,,,0.00,pywws,2013-05-17 19:17:00,
2013-05-18 05:27:00,70.3,69.1,29.91,East,90,0.0,0.7,96,0.00,,,0.00,pywws,2013-05-17 19:27:00,
2013-05-18 05:37:00,70.3,69.1,29.91,SE,135,0.0,0.0,96,0.00,,,0.00,pywws,2013-05-17 19:37:00,
2013-05-18 05:47:00,70.5,69.3,29.91,SW,225,0.0,0.7,96,0.00,,,0.00,pywws,2013-05-17 19:47:00,
2013-05-18 05:57:00,70.7,69.5,29.91,NE,45,0.0,0.7,96,0.00,,,0.00,pywws,2013-05-17 19:57:00,
2013-05-18 06:07:00,70.7,69.5,29.91,NE,45,0.0,0.7,96,0.00,,,0.00,pywws,2013-05-17 20:07:00,
2013-05-18 06:17:00,70.9,69.7,29.91,SW,225,0.0,0.0,96,0.00,,,0.00,pywws,2013-05-17 20:17:00,
2013-05-18 06:27:00,70.7,69.2,29.92,North,0,0.0,0.7,95,0.00,,,0.00,pywws,2013-05-17 20:27:00,
2013-05-18 06:37:00,70.9,69.4,29.92,NE,45,0.7,2.2,95,0.00,,,0.00,pywws,2013-05-17 20:37:00,
2013-05-18 06:47:00,71.1,69.6,29.92,NE,45,0.0,0.7,95,0.00,,,0.00,pywws,2013-05-17 20:47:00,
2013-05-18 06:57:00,71.4,69.9,29.93,NW,315,0.0,0.7,95,0.00,,,0.00,pywws,2013-05-17 20:57:00,
2013-05-18 07:07:00,71.4,69.6,29.93,South,180,0.0,0.0,94,0.00,,,0.00,pywws,2013-05-17 21:07:00,
2013-05-18 07:17:00,71.8,69.6,29.93,South,180,0.0,0.0,93,0.00,,,0.00,pywws,2013-05-17 21:17:00,
2013-05-18 07:27:00,72.1,70.3,29.94,SW,225,0.0,0.0,94,0.00,,,0.00,pywws,2013-05-17 21:27:00,
2013-05-18 07:37:00,72.3,70.2,29.94,NE,45,0.7,2.2,93,0.00,,,0.00,pywws,2013-05-17 21:37:00,
2013-05-18 07:47:00,72.9,70.1,29.94,East,90,0.0,0.7,91,0.00,,,0.00,pywws,2013-05-17 21:47:00,
2013-05-18 07:57:00,73.2,70.4,29.94,NE,45,0.7,2.2,91,0.00,,,0.00,pywws,2013-05-17 21:57:00,
2013-05-18 08:07:00,74.1,71.0,29.95,NE,45,0.0,0.0,90,0.00,,,0.00,pywws,2013-05-17 22:07:00,
2013-05-18 08:17:00,74.7,71.5,29.95,North,0,0.0,0.7,90,0.00,,,0.00,pywws,2013-05-17 22:17:00,
2013-05-18 08:27:00,74.8,71.4,29.96,North,0,0.0,2.2,89,0.00,,,0.00,pywws,2013-05-17 22:27:00,
2013-05-18 08:37:00,74.8,71.4,29.96,NE,45,0.0,1.6,89,0.00,,,0.00,pywws,2013-05-17 22:37:00,
2013-05-18 08:47:00,75.7,71.6,29.96,NE,45,0.0,0.0,87,0.00,,,0.00,pywws,2013-05-17 22:47:00,
2013-05-18 08:57:00,76.1,71.6,29.96,North,0,0.0,0.7,86,0.00,,,0.00,pywws,2013-05-17 22:57:00,
2013-05-18 09:07:00,75.7,71.2,29.97,NE,45,0.0,0.7,86,0.00,,,0.00,pywws,2013-05-17 23:07:00,
2013-05-18 09:17:00,75.2,71.4,29.97,South,180,0.0,0.0,88,0.00,,,0.00,pywws,2013-05-17 23:17:00,
2013-05-18 09:27:00,75.4,71.9,29.97,SW,225,0.0,0.7,89,0.00,,,0.00,pywws,2013-05-17 23:27:00,
2013-05-18 09:37:00,76.1,72.6,29.97,South,180,0.0,0.0,89,0.00,,,0.00,pywws,2013-05-17 23:37:00,
2013-05-18 09:47:00,77.2,73.0,29.97,SE,135,0.0,0.0,87,0.00,,,0.00,pywws,2013-05-17 23:47:00,
2013-05-18 09:57:00,77.9,72.7,29.96,NE,45,0.7,3.1,84,0.00,,,0.00,pywws,2013-05-17 23:57:00,
2013-05-18 10:07:00,79.3,74.1,29.96,NE,45,3.8,4.5,84,0.00,,,0.00,pywws,2013-05-18 00:07:00,
2013-05-18 10:17:00,78.6,73.4,29.96,South,180,0.0,0.0,84,0.00,,,0.00,pywws,2013-05-18 00:17:00,
2013-05-18 10:27:00,78.4,73.5,29.96,SE,135,0.0,0.0,85,0.00,,,0.00,pywws,2013-05-18 00:27:00,
2013-05-18 10:37:00,78.6,73.7,29.96,NW,315,0.0,1.6,85,0.00,,,0.00,pywws,2013-05-18 00:37:00,
2013-05-18 10:47:00,78.3,73.4,29.97,South,180,0.0,0.0,85,0.00,,,0.00,pywws,2013-05-18 00:47:00,
2013-05-18 10:57:00,78.1,73.5,29.96,SW,225,0.0,0.0,86,0.00,,,0.00,pywws,2013-05-18 00:57:00,
2013-05-18 11:07:00,78.6,74.1,29.96,NE,45,0.0,0.7,86,0.00,,,0.00,pywws,2013-05-18 01:07:00,
2013-05-18 11:17:00,80.6,73.5,29.95,NE,45,4.5,5.4,79,0.00,,,0.00,pywws,2013-05-18 01:17:00,
2013-05-18 11:27:00,83.8,75.4,29.94,West,270,0.0,1.6,76,0.00,,,0.00,pywws,2013-05-18 01:27:00,
2013-05-18 11:37:00,86.7,75.7,29.93,NE,45,4.5,6.9,70,0.00,,,0.00,pywws,2013-05-18 01:37:00,
2013-05-18 11:47:00,86.9,75.5,29.93,NE,45,2.2,3.1,69,0.00,,,0.00,pywws,2013-05-18 01:47:00,
2013-05-18 11:57:00,86.7,75.3,29.92,North,0,0.0,0.7,69,0.00,,,0.00,pywws,2013-05-18 01:57:00,
2013-05-18 12:07:00,87.4,76.4,29.92,North,0,0.0,1.6,70,0.00,,,0.00,pywws,2013-05-18 02:07:00,
2013-05-18 12:17:00,89.4,77.9,29.91,SW,225,0.7,2.2,69,0.00,,,0.00,pywws,2013-05-18 02:17:00,
2013-05-18 12:27:00,91.6,77.2,29.90,NE,45,1.6,4.5,63,0.00,,,0.00,pywws,2013-05-18 02:27:00,
2013-05-18 12:37:00,87.4,75.1,29.90,SW,225,0.7,1.6,67,0.00,,,0.00,pywws,2013-05-18 02:37:00,
2013-05-18 12:47:00,91.0,76.7,29.89,NW,315,1.6,3.8,63,0.00,,,0.00,pywws,2013-05-18 02:47:00,
2013-05-18 12:57:00,88.0,75.2,29.88,NE,45,2.2,3.8,66,0.00,,,0.00,pywws,2013-05-18 02:57:00,
2013-05-18 13:07:00,87.4,76.4,29.88,West,270,0.7,2.2,70,0.00,,,0.00,pywws,2013-05-18 03:07:00,
2013-05-18 13:17:00,86.9,76.8,29.88,NE,45,1.6,3.1,72,0.00,,,0.00,pywws,2013-05-18 03:17:00,
2013-05-18 13:27:00,87.3,77.5,29.87,SE,135,0.0,0.7,73,0.00,,,0.00,pywws,2013-05-18 03:27:00,
2013-05-18 13:37:00,88.3,75.5,29.87,North,0,1.6,3.1,66,0.00,,,0.00,pywws,2013-05-18 03:37:00,
2013-05-18 13:47:00,85.8,76.5,29.87,South,180,0.0,0.7,74,0.00,,,0.00,pywws,2013-05-18 03:47:00,
2013-05-18 13:57:00,84.2,76.2,29.86,South,180,0.0,0.7,77,0.00,,,0.00,pywws,2013-05-18 03:57:00,
2013-05-18 14:07:00,84.6,76.1,29.86,NW,315,0.7,3.1,76,0.00,,,0.00,pywws,2013-05-18 04:07:00,
2013-05-18 14:17:00,84.2,75.8,29.85,North,0,0.7,3.1,76,0.00,,,0.00,pywws,2013-05-18 04:17:00,
2013-05-18 14:27:00,84.2,75.8,29.85,South,180,0.0,0.0,76,0.00,,,0.00,pywws,2013-05-18 04:27:00,
2013-05-18 14:37:00,82.9,75.7,29.85,South,180,0.0,0.7,79,0.00,,,0.00,pywws,2013-05-18 04:37:00,
2013-05-18 14:47:00,81.9,75.4,29.85,SW,225,0.0,1.6,81,0.00,,,0.00,pywws,2013-05-18 04:47:00,
2013-05-18 14:57:00,81.7,75.3,29.85,SE,135,0.0,1.6,81,0.00,,,0.00,pywws,2013-05-18 04:57:00,
2013-05-18 15:07:00,82.0,75.2,29.85,SE,135,0.0,0.7,80,0.00,,,0.00,pywws,2013-05-18 05:07:00,
2013-05-18 15:17:00,82.2,75.0,29.85,SW,225,1.6,3.8,79,0.00,,,0.00,pywws,2013-05-18 05:17:00,
2013-05-18 15:27:00,81.9,75.1,29.85,SW,225,2.2,3.8,80,0.00,,,0.00,pywws,2013-05-18 05:27:00,
2013-05-18 15:37:00,81.1,74.7,29.85,East,90,0.0,0.7,81,0.00,,,0.00,pywws,2013-05-18 05:37:00,
2013-05-18 15:47:00,80.4,74.8,29.85,West,270,0.7,2.2,83,0.00,,,0.00,pywws,2013-05-18 05:47:00,
2013-05-18 15:57:00,80.2,75.0,29.85,NW,315,0.7,2.2,84,0.00,,,0.00,pywws,2013-05-18 05:57:00,
2013-05-18 16:07:00,80.2,74.6,29.85,West,270,0.7,2.2,83,0.00,,,0.00,pywws,2013-05-18 06:07:00,
2013-05-18 16:20:00,80.1,74.8,29.85,West,270,1.6,2.2,84,0.00,,,0.00,pywws,2013-05-18 06:20:00,
2013-05-18 16:28:00,79.7,74.4,29.85,SW,225,1.6,3.1,84,0.00,,,0.00,pywws,2013-05-18 06:28:00,
2013-05-18 16:38:00,79.9,74.6,29.85,West,270,0.7,2.2,84,0.00,,,0.00,pywws,2013-05-18 06:38:00,
2013-05-18 16:49:00,80.2,74.6,29.86,West,270,0.0,1.6,83,0.00,,,0.00,pywws,2013-05-18 06:49:00,
2013-05-18 16:58:00,79.9,74.6,29.85,NW,315,0.0,1.6,84,0.00,,,0.00,pywws,2013-05-18 06:58:00,
2013-05-18 17:08:00,79.9,74.6,29.86,West,270,0.0,0.7,84,0.00,,,0.00,pywws,2013-05-18 07:08:00,
2013-05-18 17:18:00,79.9,74.6,29.86,South,180,0.0,0.0,84,0.00,,,0.00,pywws,2013-05-18 07:18:00,
2013-05-18 17:29:00,78.8,74.2,29.86,South,180,0.0,0.7,86,0.00,,,0.00,pywws,2013-05-18 07:29:00,
2013-05-18 17:38:00,78.1,74.6,29.87,South,180,0.0,0.7,89,0.00,,,0.00,pywws,2013-05-18 07:38:00,
2013-05-18 17:49:00,77.4,74.2,29.87,South,180,0.0,0.0,90,0.00,,,0.00,pywws,2013-05-18 07:49:00,
2013-05-18 17:58:00,77.0,74.5,29.88,SW,225,0.0,0.7,92,0.00,,,0.00,pywws,2013-05-18 07:58:00,
2013-05-18 18:08:00,76.8,74.3,29.88,SW,225,0.0,0.7,92,0.00,,,0.00,pywws,2013-05-18 08:08:00,
2013-05-18 18:18:00,76.6,74.1,29.88,SE,135,0.0,0.7,92,0.00,,,0.00,pywws,2013-05-18 08:18:00,
2013-05-18 18:29:00,76.6,74.1,29.89,North,0,1.6,2.2,92,0.00,,,0.00,pywws,2013-05-18 08:29:00,
2013-05-18 18:38:00,77.0,73.5,29.90,NE,45,1.6,3.1,89,0.00,,,0.00,pywws,2013-05-18 08:38:00,
2013-05-18 18:49:00,77.2,73.3,29.90,ENE,68,0.7,1.6,88,0.00,,,0.00,pywws,2013-05-18 08:49:00,
2013-05-18 18:58:00,77.2,73.0,29.90,North,0,0.7,3.1,87,0.00,,,0.00,pywws,2013-05-18 08:58:00,
2013-05-18 19:08:00,76.8,73.3,29.91,North,0,0.0,1.6,89,0.00,,,0.00,pywws,2013-05-18 09:08:00,
2013-05-18 19:18:00,76.5,73.3,29.91,North,0,0.7,1.6,90,0.00,,,0.00,pywws,2013-05-18 09:18:00,
2013-05-18 19:29:00,76.1,73.3,29.91,NE,45,0.0,1.6,91,0.00,,,0.00,pywws,2013-05-18 09:29:00,
2013-05-18 19:38:00,75.9,73.1,29.92,NE,45,0.0,0.7,91,0.00,,,0.00,pywws,2013-05-18 09:38:00,
2013-05-18 19:49:00,75.4,72.9,29.93,NE,45,3.1,4.5,92,0.00,,,0.00,pywws,2013-05-18 09:49:00,
2013-05-18 19:58:00,75.0,73.2,29.93,West,270,0.0,0.0,94,0.00,,,0.00,pywws,2013-05-18 09:58:00,
2013-05-18 20:08:00,74.7,73.1,29.93,NE,45,0.0,0.0,95,0.00,,,0.00,pywws,2013-05-18 10:08:00,
2013-05-18 20:18:00,74.5,73.3,29.94,South,180,0.0,0.0,96,0.00,,,0.00,pywws,2013-05-18 10:18:00,
2013-05-18 20:29:00,74.7,73.4,29.94,NE,45,0.0,1.6,96,0.00,,,0.00,pywws,2013-05-18 10:29:00,
2013-05-18 20:38:00,74.7,73.4,29.94,SW,225,0.0,0.0,96,0.00,,,0.00,pywws,2013-05-18 10:38:00,
2013-05-18 20:49:00,74.5,73.3,29.95,NW,315,0.0,0.0,96,0.00,,,0.00,pywws,2013-05-18 10:49:00,
2013-05-18 20:58:00,74.5,73.6,29.95,South,180,0.0,0.0,97,0.00,,,0.00,pywws,2013-05-18 10:58:00,
2013-05-18 21:08:00,74.5,73.6,29.95,South,180,0.0,0.0,97,0.00,,,0.00,pywws,2013-05-18 11:08:00,
2013-05-18 21:18:00,74.3,73.4,29.95,South,180,0.0,0.7,97,0.00,,,0.00,pywws,2013-05-18 11:18:00,
2013-05-18 21:29:00,74.3,73.4,29.95,South,180,0.0,0.0,97,0.00,,,0.00,pywws,2013-05-18 11:29:00,
2013-05-18 21:38:00,74.3,73.4,29.95,South,180,0.0,0.7,97,0.00,,,0.00,pywws,2013-05-18 11:38:00,
2013-05-18 21:49:00,74.1,73.5,29.95,SW,225,0.0,0.0,98,0.01,,,0.01,pywws,2013-05-18 11:49:00,
2013-05-18 21:58:00,73.8,73.2,29.95,SW,225,0.0,0.7,98,0.01,,,0.01,pywws,2013-05-18 11:58:00,
2013-05-18 22:08:00,73.6,73.0,29.95,SW,225,0.0,0.0,98,0.01,,,0.01,pywws,2013-05-18 12:08:00,
2013-05-18 22:18:00,73.4,73.1,29.95,SW,225,0.0,0.0,99,0.02,,,0.02,pywws,2013-05-18 12:18:00,
2013-05-18 22:29:00,73.2,72.3,29.94,SW,225,0.0,0.7,97,0.02,,,0.02,pywws,2013-05-18 12:29:00,
2013-05-18 22:38:00,73.2,72.3,29.95,SW,225,0.0,0.0,97,0.02,,,0.02,pywws,2013-05-18 12:38:00,
2013-05-18 22:49:00,73.0,72.1,29.94,SW,225,0.0,0.0,97,0.01,,,0.02,pywws,2013-05-18 12:49:00,
2013-05-18 22:58:00,73.0,72.1,29.94,SW,225,0.0,0.0,97,0.01,,,0.02,pywws,2013-05-18 12:58:00,
2013-05-18 23:08:00,73.0,72.1,29.94,SW,225,0.0,0.0,97,0.01,,,0.02,pywws,2013-05-18 13:08:00,
2013-05-18 23:18:00,73.0,72.1,29.95,SW,225,0.0,0.0,97,0.01,,,0.04,pywws,2013-05-18 13:18:00,
2013-05-18 23:29:00,73.0,72.1,29.94,SW,225,0.0,0.0,97,0.01,,,0.04,pywws,2013-05-18 13:29:00,
2013-05-18 23:38:00,73.0,72.1,29.94,SW,225,0.0,0.0,97,0.01,,,0.04,pywws,2013-05-18 13:38:00,
2013-05-18 23:49:00,73.0,72.1,29.94,SW,225,0.0,0.0,97,0.01,,,0.04,pywws,2013-05-18 13:49:00,
2013-05-18 23:58:00,72.9,72.0,29.93,West,270,0.0,0.0,97,0.01,,,0.04,pywws,2013-05-18 13:58:00,